La rose des vents
Donnes mto: Semaine 10/03/08 - 16/03/08 (S 11)
Date Horaire Temp. E. Hum. E. P.atmo. Pluie Vent 1mn Direction Ensoleilleme Ev.Tr. Solaire P. de rose Temp au vent Rafales
10/03/2008 00:00 8,5 C 87 % 1008,4 hPa 0,0 l/m 0,2 km/h (0 Bft) O-SO 0,00 h 0,025 mm 0 W/m 6,5 C 8,5 C 0,3 km/h (0 Bft)
10/03/2008 01:00 8,4 C 88 % 1008,2 hPa 0,6 l/m 2,1 km/h (1 Bft) S-SO 0,00 h 0,000 mm 0 W/m 6,5 C 8,2 C 2,9 km/h (1 Bft)
10/03/2008 02:00 8,0 C 90 % 1007,8 hPa 2,0 l/m 2,9 km/h (1 Bft) N-NO 0,00 h 0,025 mm 0 W/m 6,5 C 7,9 C 5,4 km/h (1 Bft)
10/03/2008 03:00 7,8 C 92 % 1007,3 hPa 4,2 l/m 5,1 km/h (1 Bft) NO 0,00 h 0,025 mm 0 W/m 6,6 C 7,2 C 7,4 km/h (2 Bft)
10/03/2008 04:00 7,3 C 93 % 1006,7 hPa 1,8 l/m 3,0 km/h (1 Bft) N-NO 0,00 h 0,025 mm 0 W/m 6,3 C 7,1 C 5,0 km/h (1 Bft)
10/03/2008 05:00 6,9 C 94 % 1006,4 hPa 1,8 l/m 2,8 km/h (1 Bft) N-NO 0,00 h 0,000 mm 0 W/m 6,0 C 6,7 C 4,7 km/h (1 Bft)
10/03/2008 06:00 6,9 C 94 % 1006,2 hPa 1,2 l/m 7,2 km/h (2 Bft) O-NO 0,00 h 0,000 mm 0 W/m 6,0 C 5,7 C 10,2 km/h (2 Bft)
10/03/2008 07:00 7,0 C 95 % 1005,9 hPa 0,8 l/m 2,3 km/h (1 Bft) N-NO 0,00 h 0,000 mm 7 W/m 6,3 C 6,9 C 4,4 km/h (1 Bft)
10/03/2008 08:00 7,2 C 95 % 1006,1 hPa 1,8 l/m 1,5 km/h (1 Bft) N 0,00 h 0,000 mm 24 W/m 6,5 C 7,1 C 3,0 km/h (1 Bft)
10/03/2008 09:00 7,4 C 95 % 1005,8 hPa 1,4 l/m 4,7 km/h (1 Bft) N 0,00 h 0,025 mm 51 W/m 6,6 C 6,8 C 7,0 km/h (2 Bft)
10/03/2008 10:00 7,7 C 95 % 1005,6 hPa 1,6 l/m 3,9 km/h (1 Bft) N-NE 0,00 h 0,025 mm 47 W/m 7,0 C 7,4 C 6,2 km/h (2 Bft)
10/03/2008 11:00 7,7 C 96 % 1005,1 hPa 1,6 l/m 7,4 km/h (2 Bft) N-NE 0,00 h 0,025 mm 65 W/m 7,1 C 6,5 C 10,9 km/h (2 Bft)
10/03/2008 12:00 7,6 C 96 % 1004,6 hPa 0,8 l/m 5,9 km/h (2 Bft) N-NE 0,00 h 0,025 mm 59 W/m 7,0 C 6,8 C 9,6 km/h (2 Bft)
10/03/2008 13:00 7,7 C 96 % 1003,7 hPa 0,0 l/m 3,4 km/h (1 Bft) N 0,00 h 0,025 mm 52 W/m 7,1 C 7,5 C 5,7 km/h (1 Bft)
10/03/2008 14:00 8,0 C 96 % 1002,4 hPa 1,2 l/m 1,2 km/h (1 Bft) N-NE 0,00 h 0,025 mm 36 W/m 7,4 C 8,0 C 2,8 km/h (1 Bft)
10/03/2008 15:00 8,2 C 97 % 1001,9 hPa 2,2 l/m 1,7 km/h (1 Bft) NO 0,00 h 0,025 mm 49 W/m 7,7 C 8,1 C 2,9 km/h (1 Bft)
10/03/2008 16:00 8,5 C 97 % 1001,4 hPa 0,4 l/m 4,3 km/h (1 Bft) SO 0,00 h 0,025 mm 54 W/m 8,0 C 8,1 C 5,7 km/h (1 Bft)
10/03/2008 17:00 8,5 C 97 % 1000,9 hPa 0,0 l/m 5,5 km/h (1 Bft) S 0,00 h 0,025 mm 48 W/m 8,0 C 7,9 C 7,6 km/h (2 Bft)
10/03/2008 18:00 7,9 C 97 % 1001,0 hPa 0,8 l/m 8,1 km/h (2 Bft) O-SO 0,00 h 0,025 mm 8 W/m 7,5 C 6,7 C 11,1 km/h (2 Bft)
10/03/2008 19:00 7,2 C 97 % 1001,2 hPa 0,4 l/m 8,5 km/h (2 Bft) O-SO 0,00 h 0,000 mm 0 W/m 6,7 C 5,6 C 11,7 km/h (2 Bft)
10/03/2008 20:00 6,7 C 97 % 1000,5 hPa 1,0 l/m 6,1 km/h (2 Bft) O-NO 0,00 h 0,000 mm 0 W/m 6,3 C 5,7 C 8,1 km/h (2 Bft)
10/03/2008 21:00 6,6 C 97 % 1000,0 hPa 1,4 l/m 1,1 km/h (1 Bft) O-NO 0,00 h 0,000 mm 0 W/m 6,2 C 6,6 C 1,9 km/h (1 Bft)
10/03/2008 22:00 6,4 C 97 % 998,9 hPa 0,0 l/m 1,2 km/h (1 Bft) O-SO 0,00 h 0,000 mm 0 W/m 5,9 C 6,3 C 1,8 km/h (1 Bft)
10/03/2008 23:00 5,7 C 97 % 998,0 hPa 0,0 l/m 7,3 km/h (2 Bft) O-SO 0,00 h 0,000 mm 0 W/m 5,3 C 4,4 C 9,6 km/h (2 Bft)
11/03/2008 00:00 5,6 C 97 % 997,1 hPa 0,0 l/m 9,3 km/h (2 Bft) SO 0,00 h 0,000 mm 0 W/m 5,1 C 3,8 C 13,6 km/h (3 Bft)
11/03/2008 01:00 6,2 C 96 % 996,0 hPa 0,0 l/m 11,8 km/h (2 Bft) SO 0,00 h 0,000 mm 0 W/m 5,7 C 4,1 C 17,8 km/h (3 Bft)
11/03/2008 02:00 6,6 C 92 % 995,6 hPa 0,0 l/m 31,7 km/h (5 Bft) SO 0,00 h 0,025 mm 0 W/m 5,4 C 2,1 C 41,0 km/h (6 Bft)
11/03/2008 03:00 7,5 C 77 % 995,6 hPa 0,0 l/m 30,3 km/h (5 Bft) SO 0,00 h 0,025 mm 0 W/m 3,6 C 3,4 C 39,4 km/h (6 Bft)
11/03/2008 04:00 7,7 C 71 % 996,0 hPa 0,2 l/m 26,8 km/h (4 Bft) SO 0,00 h 0,076 mm 0 W/m 2,6 C 3,8 C 34,3 km/h (5 Bft)
11/03/2008 05:00 8,5 C 60 % 996,4 hPa 0,0 l/m 23,7 km/h (4 Bft) O-SO 0,00 h 0,076 mm 0 W/m 1,3 C 5,2 C 31,2 km/h (5 Bft)
11/03/2008 06:00 8,2 C 63 % 997,1 hPa 0,0 l/m 24,1 km/h (4 Bft) O-SO 0,00 h 0,102 mm 7 W/m 1,6 C 4,7 C 31,3 km/h (5 Bft)
11/03/2008 07:00 8,4 C 63 % 998,0 hPa 0,0 l/m 21,3 km/h (4 Bft) SO 0,33 h 0,102 mm 55 W/m 1,7 C 5,3 C 27,8 km/h (4 Bft)
11/03/2008 08:00 10,7 C 53 % 998,8 hPa 0,0 l/m 17,6 km/h (3 Bft) O-SO 1,00 h 0,102 mm 257 W/m 1,5 C 10,0 C 24,5 km/h (4 Bft)
11/03/2008 09:00 12,7 C 46 % 999,5 hPa 0,0 l/m 19,1 km/h (3 Bft) O-SO 1,00 h 0,229 mm 429 W/m 1,2 C 12,7 C 25,8 km/h (4 Bft)
11/03/2008 10:00 14,9 C 34 % 1000,5 hPa 0,0 l/m 10,1 km/h (2 Bft) O-SO 1,00 h 0,330 mm 569 W/m -1,0 C 14,9 C 15,5 km/h (3 Bft)
11/03/2008 11:00 16,6 C 28 % 1000,8 hPa 0,0 l/m 10,3 km/h (2 Bft) O-NO 1,00 h 0,381 mm 660 W/m -2,1 C 16,6 C 16,6 km/h (3 Bft)
11/03/2008 12:00 17,6 C 28 % 1000,8 hPa 0,0 l/m 14,0 km/h (3 Bft) O-NO 1,00 h 0,457 mm 698 W/m -1,2 C 17,6 C 22,1 km/h (4 Bft)
11/03/2008 13:00 18,6 C 29 % 1000,6 hPa 0,0 l/m 13,0 km/h (3 Bft) NO 1,00 h 0,533 mm 668 W/m 0,4 C 18,6 C 21,5 km/h (4 Bft)
11/03/2008 14:00 18,9 C 30 % 1000,9 hPa 0,0 l/m 14,0 km/h (3 Bft) O-NO 1,00 h 0,508 mm 531 W/m 1,0 C 18,9 C 22,3 km/h (4 Bft)
11/03/2008 15:00 18,3 C 33 % 1001,7 hPa 0,0 l/m 27,8 km/h (4 Bft) O 1,00 h 0,432 mm 469 W/m 1,6 C 18,3 C 39,0 km/h (6 Bft)
11/03/2008 16:00 17,3 C 37 % 1002,0 hPa 0,0 l/m 26,2 km/h (4 Bft) O 1,00 h 0,508 mm 314 W/m 2,4 C 17,3 C 39,2 km/h (6 Bft)
11/03/2008 17:00 16,2 C 45 % 1002,0 hPa 0,0 l/m 23,8 km/h (4 Bft) SO 1,00 h 0,381 mm 141 W/m 4,1 C 16,2 C 33,1 km/h (5 Bft)
11/03/2008 18:00 14,7 C 51 % 1003,3 hPa 0,0 l/m 25,2 km/h (4 Bft) SO 0,05 h 0,254 mm 13 W/m 4,5 C 14,7 C 33,9 km/h (5 Bft)
11/03/2008 19:00 14,4 C 54 % 1004,1 hPa 0,0 l/m 16,2 km/h (3 Bft) SO 0,00 h 0,152 mm 0 W/m 5,2 C 14,4 C 21,8 km/h (4 Bft)
11/03/2008 20:00 14,9 C 54 % 1004,7 hPa 0,0 l/m 11,5 km/h (2 Bft) SO 0,00 h 0,102 mm 0 W/m 5,7 C 14,9 C 16,7 km/h (3 Bft)
11/03/2008 21:00 15,1 C 55 % 1004,9 hPa 0,0 l/m 7,5 km/h (2 Bft) SO 0,00 h 0,102 mm 0 W/m 6,1 C 15,1 C 10,4 km/h (2 Bft)
11/03/2008 22:00 15,0 C 55 % 1005,0 hPa 0,0 l/m 11,7 km/h (2 Bft) O-SO 0,00 h 0,076 mm 0 W/m 6,1 C 15,0 C 15,8 km/h (3 Bft)
11/03/2008 23:00 15,0 C 55 % 1005,1 hPa 0,0 l/m 8,3 km/h (2 Bft) E 0,00 h 0,102 mm 0 W/m 5,9 C 15,0 C 12,0 km/h (2 Bft)
12/03/2008 00:00 12,9 C 62 % 1005,6 hPa 0,0 l/m 3,0 km/h (1 Bft) E-SE 0,00 h 0,076 mm 0 W/m 5,7 C 12,9 C 4,7 km/h (1 Bft)
12/03/2008 01:00 10,6 C 75 % 1006,0 hPa 0,0 l/m 3,4 km/h (1 Bft) E-NE 0,00 h 0,051 mm 0 W/m 6,4 C 10,6 C 4,8 km/h (1 Bft)
12/03/2008 02:00 10,1 C 77 % 1005,8 hPa 0,0 l/m 5,0 km/h (1 Bft) E-SE 0,00 h 0,025 mm 0 W/m 6,2 C 9,8 C 6,8 km/h (2 Bft)
12/03/2008 03:00 9,7 C 78 % 1006,0 hPa 0,0 l/m 3,0 km/h (1 Bft) SO 0,00 h 0,025 mm 0 W/m 6,0 C 9,5 C 4,5 km/h (1 Bft)
12/03/2008 04:00 9,4 C 78 % 1006,1 hPa 0,0 l/m 1,9 km/h (1 Bft) N 0,00 h 0,025 mm 0 W/m 5,8 C 9,4 C 3,4 km/h (1 Bft)
12/03/2008 05:00 9,0 C 78 % 1006,7 hPa 0,0 l/m 2,5 km/h (1 Bft) NO 0,00 h 0,025 mm 0 W/m 5,4 C 8,9 C 4,3 km/h (1 Bft)
12/03/2008 06:00 8,9 C 78 % 1007,0 hPa 0,0 l/m 0,7 km/h (0 Bft) NO 0,02 h 0,025 mm 7 W/m 5,2 C 8,9 C 1,1 km/h (1 Bft)
12/03/2008 07:00 9,2 C 79 % 1007,1 hPa 0,0 l/m 1,8 km/h (1 Bft) NO 0,05 h 0,000 mm 52 W/m 5,7 C 9,2 C 2,9 km/h (1 Bft)
12/03/2008 08:00 11,3 C 75 % 1007,0 hPa 0,0 l/m 1,8 km/h (1 Bft) NO 0,90 h 0,025 mm 263 W/m 7,1 C 11,3 C 3,4 km/h (1 Bft)
12/03/2008 09:00 13,5 C 73 % 1006,8 hPa 0,0 l/m 4,0 km/h (1 Bft) E 0,97 h 0,127 mm 367 W/m 8,8 C 13,5 C 6,3 km/h (2 Bft)
12/03/2008 10:00 13,8 C 78 % 1007,1 hPa 0,0 l/m 8,0 km/h (2 Bft) E 0,62 h 0,203 mm 359 W/m 10,0 C 13,8 C 12,6 km/h (3 Bft)
12/03/2008 11:00 14,4 C 81 % 1007,1 hPa 0,0 l/m 6,4 km/h (2 Bft) E 0,72 h 0,203 mm 505 W/m 11,1 C 14,4 C 10,4 km/h (2 Bft)
12/03/2008 12:00 14,9 C 77 % 1007,0 hPa 0,0 l/m 6,2 km/h (2 Bft) E 1,00 h 0,279 mm 665 W/m 10,9 C 14,9 C 10,6 km/h (2 Bft)
12/03/2008 13:00 15,3 C 75 % 1006,6 hPa 0,0 l/m 6,8 km/h (2 Bft) E 1,00 h 0,356 mm 546 W/m 10,9 C 15,3 C 10,2 km/h (2 Bft)
12/03/2008 14:00 15,7 C 73 % 1005,9 hPa 0,0 l/m 6,9 km/h (2 Bft) E 1,00 h 0,305 mm 603 W/m 10,9 C 15,7 C 11,0 km/h (2 Bft)
12/03/2008 15:00 18,2 C 58 % 1005,3 hPa 0,0 l/m 12,6 km/h (3 Bft) E-SE 1,00 h 0,356 mm 480 W/m 9,0 C 18,2 C 19,1 km/h (3 Bft)
12/03/2008 16:00 21,4 C 30 % 1005,2 hPa 0,0 l/m 19,1 km/h (3 Bft) O 1,00 h 0,356 mm 320 W/m 3,1 C 21,4 C 29,4 km/h (5 Bft)
12/03/2008 17:00 20,4 C 31 % 1005,9 hPa 0,0 l/m 18,2 km/h (3 Bft) O-NO 1,00 h 0,381 mm 144 W/m 2,9 C 20,4 C 26,9 km/h (4 Bft)
12/03/2008 18:00 18,3 C 38 % 1006,8 hPa 0,0 l/m 18,2 km/h (3 Bft) O-SO 0,03 h 0,254 mm 15 W/m 3,6 C 18,3 C 26,3 km/h (4 Bft)
12/03/2008 19:00 17,3 C 40 % 1007,8 hPa 0,0 l/m 17,9 km/h (3 Bft) O 0,00 h 0,178 mm 0 W/m 3,7 C 17,3 C 25,7 km/h (4 Bft)
12/03/2008 20:00 16,9 C 39 % 1007,9 hPa 0,0 l/m 20,5 km/h (4 Bft) O-SO 0,00 h 0,152 mm 0 W/m 3,0 C 16,9 C 28,1 km/h (4 Bft)
12/03/2008 21:00 16,7 C 34 % 1007,8 hPa 0,0 l/m 16,5 km/h (3 Bft) SO 0,00 h 0,178 mm 0 W/m 0,7 C 16,7 C 23,7 km/h (4 Bft)
12/03/2008 22:00 16,5 C 30 % 1008,1 hPa 0,0 l/m 15,8 km/h (3 Bft) O-SO 0,00 h 0,152 mm 0 W/m -1,0 C 16,5 C 21,7 km/h (4 Bft)
12/03/2008 23:00 13,1 C 68 % 1009,0 hPa 0,0 l/m 6,5 km/h (2 Bft) E 0,00 h 0,152 mm 0 W/m 7,0 C 13,1 C 8,9 km/h (2 Bft)
13/03/2008 00:00 10,7 C 85 % 1010,0 hPa 0,0 l/m 4,2 km/h (1 Bft) S-SE 0,00 h 0,051 mm 0 W/m 8,2 C 10,7 C 5,8 km/h (2 Bft)
13/03/2008 01:00 10,3 C 90 % 1010,6 hPa 0,0 l/m 3,7 km/h (1 Bft) S-SO 0,00 h 0,025 mm 0 W/m 8,7 C 10,3 C 4,9 km/h (1 Bft)
13/03/2008 02:00 9,6 C 91 % 1010,8 hPa 0,0 l/m 5,5 km/h (1 Bft) O-NO 0,00 h 0,025 mm 0 W/m 8,2 C 9,1 C 7,8 km/h (2 Bft)
13/03/2008 03:00 9,5 C 89 % 1010,7 hPa 0,0 l/m 7,4 km/h (2 Bft) O 0,00 h 0,025 mm 0 W/m 7,9 C 8,6 C 9,6 km/h (2 Bft)
13/03/2008 04:00 9,0 C 76 % 1010,5 hPa 0,0 l/m 4,8 km/h (1 Bft) O-NO 0,00 h 0,025 mm 0 W/m 4,9 C 8,6 C 7,0 km/h (2 Bft)
13/03/2008 05:00 9,9 C 63 % 1010,5 hPa 0,0 l/m 3,5 km/h (1 Bft) NO 0,00 h 0,025 mm 0 W/m 3,2 C 9,8 C 5,1 km/h (1 Bft)
13/03/2008 06:00 10,2 C 47 % 1010,5 hPa 0,0 l/m 7,6 km/h (2 Bft) O 0,03 h 0,051 mm 9 W/m -0,6 C 10,0 C 10,1 km/h (2 Bft)
13/03/2008 07:00 11,0 C 43 % 1010,7 hPa 0,0 l/m 3,9 km/h (1 Bft) NO 0,17 h 0,051 mm 48 W/m -1,3 C 11,0 C 6,1 km/h (2 Bft)
13/03/2008 08:00 13,5 C 41 % 1010,8 hPa 0,0 l/m 1,3 km/h (1 Bft) NO 0,93 h 0,051 mm 252 W/m 0,7 C 13,5 C 2,6 km/h (1 Bft)
13/03/2008 09:00 15,5 C 43 % 1010,9 hPa 0,0 l/m 3,1 km/h (1 Bft) NE 1,00 h 0,152 mm 407 W/m 2,9 C 15,5 C 5,9 km/h (2 Bft)
13/03/2008 10:00 14,9 C 74 % 1011,7 hPa 0,0 l/m 8,3 km/h (2 Bft) E 1,00 h 0,254 mm 537 W/m 10,2 C 14,9 C 14,8 km/h (3 Bft)
13/03/2008 11:00 15,4 C 75 % 1012,3 hPa 0,0 l/m 11,4 km/h (2 Bft) E-NE 0,87 h 0,305 mm 589 W/m 11,1 C 15,4 C 17,1 km/h (3 Bft)
13/03/2008 12:00 15,2 C 78 % 1012,6 hPa 0,0 l/m 8,9 km/h (2 Bft) E-NE 0,88 h 0,356 mm 663 W/m 11,4 C 15,2 C 14,0 km/h (3 Bft)
13/03/2008 13:00 15,4 C 76 % 1011,9 hPa 0,0 l/m 5,2 km/h (1 Bft) S-SE 1,00 h 0,356 mm 671 W/m 11,2 C 15,4 C 8,5 km/h (2 Bft)
13/03/2008 14:00 16,1 C 73 % 1011,1 hPa 0,0 l/m 5,0 km/h (1 Bft) E 1,00 h 0,381 mm 584 W/m 11,2 C 16,1 C 8,1 km/h (2 Bft)
13/03/2008 15:00 15,1 C 75 % 1011,1 hPa 0,0 l/m 4,2 km/h (1 Bft) SE 1,00 h 0,330 mm 466 W/m 10,6 C 15,1 C 7,4 km/h (2 Bft)
13/03/2008 16:00 14,9 C 74 % 1011,1 hPa 0,0 l/m 2,6 km/h (1 Bft) SE 1,00 h 0,254 mm 305 W/m 10,2 C 14,9 C 5,1 km/h (1 Bft)
13/03/2008 17:00 14,0 C 77 % 1011,3 hPa 0,0 l/m 4,5 km/h (1 Bft) E 1,00 h 0,178 mm 132 W/m 9,9 C 14,0 C 7,5 km/h (2 Bft)
13/03/2008 18:00 11,8 C 87 % 1011,7 hPa 0,0 l/m 1,7 km/h (1 Bft) E-NE 0,03 h 0,076 mm 19 W/m 9,6 C 11,8 C 2,5 km/h (1 Bft)
13/03/2008 19:00 10,5 C 89 % 1011,9 hPa 0,0 l/m 1,0 km/h (0 Bft) E-NE 0,00 h 0,000 mm 0 W/m 8,7 C 10,5 C 1,6 km/h (1 Bft)
13/03/2008 20:00 9,9 C 90 % 1011,9 hPa 0,0 l/m 0,7 km/h (0 Bft) E-NE 0,00 h 0,025 mm 0 W/m 8,4 C 9,9 C 1,5 km/h (1 Bft)
13/03/2008 21:00 9,8 C 91 % 1012,3 hPa 0,0 l/m 0,7 km/h (0 Bft) E-NE 0,00 h 0,000 mm 0 W/m 8,5 C 9,8 C 1,6 km/h (1 Bft)
13/03/2008 22:00 10,7 C 92 % 1012,6 hPa 0,0 l/m 0,5 km/h (0 Bft) E 0,00 h 0,000 mm 0 W/m 9,4 C 10,7 C 1,1 km/h (1 Bft)
13/03/2008 23:00 10,2 C 93 % 1012,9 hPa 0,0 l/m 3,1 km/h (1 Bft) O-NO 0,00 h 0,000 mm 0 W/m 9,1 C 10,2 C 4,8 km/h (1 Bft)
14/03/2008 00:00 9,5 C 93 % 1013,0 hPa 0,0 l/m 6,5 km/h (2 Bft) O-NO 0,00 h 0,000 mm 0 W/m 8,4 C 8,8 C 9,3 km/h (2 Bft)
14/03/2008 01:00 9,1 C 93 % 1012,8 hPa 0,0 l/m 10,0 km/h (2 Bft) O-NO 0,00 h 0,025 mm 0 W/m 8,0 C 7,5 C 13,3 km/h (3 Bft)
14/03/2008 02:00 8,4 C 92 % 1012,3 hPa 0,0 l/m 8,3 km/h (2 Bft) O-NO 0,00 h 0,025 mm 0 W/m 7,3 C 7,1 C 10,5 km/h (2 Bft)
14/03/2008 03:00 8,4 C 91 % 1011,8 hPa 0,0 l/m 7,3 km/h (2 Bft) O 0,00 h 0,025 mm 0 W/m 7,0 C 7,3 C 9,7 km/h (2 Bft)
14/03/2008 04:00 8,2 C 91 % 1011,8 hPa 0,0 l/m 6,4 km/h (2 Bft) O 0,00 h 0,025 mm 0 W/m 6,8 C 7,3 C 9,2 km/h (2 Bft)
14/03/2008 05:00 8,2 C 92 % 1012,2 hPa 0,0 l/m 7,3 km/h (2 Bft) O-SO 0,00 h 0,025 mm 0 W/m 7,0 C 7,1 C 9,9 km/h (2 Bft)
14/03/2008 06:00 8,2 C 92 % 1012,8 hPa 0,0 l/m 6,9 km/h (2 Bft) O 0,08 h 0,025 mm 14 W/m 7,0 C 7,2 C 8,8 km/h (2 Bft)
14/03/2008 07:00 8,7 C 92 % 1013,2 hPa 0,0 l/m 7,3 km/h (2 Bft) O 0,38 h 0,025 mm 62 W/m 7,4 C 7,6 C 9,5 km/h (2 Bft)
14/03/2008 08:00 10,2 C 90 % 1013,8 hPa 0,0 l/m 4,7 km/h (1 Bft) O 0,32 h 0,051 mm 162 W/m 8,6 C 10,1 C 7,0 km/h (2 Bft)
14/03/2008 09:00 11,8 C 83 % 1014,0 hPa 0,0 l/m 5,7 km/h (1 Bft) O-SO 0,45 h 0,076 mm 276 W/m 9,1 C 11,8 C 8,3 km/h (2 Bft)
14/03/2008 10:00 13,3 C 75 % 1014,1 hPa 0,0 l/m 9,7 km/h (2 Bft) S 0,68 h 0,152 mm 516 W/m 9,1 C 13,3 C 13,7 km/h (3 Bft)
14/03/2008 11:00 14,4 C 72 % 1014,2 hPa 0,0 l/m 9,5 km/h (2 Bft) S-SE 1,00 h 0,305 mm 677 W/m 9,4 C 14,4 C 14,3 km/h (3 Bft)
14/03/2008 12:00 15,2 C 68 % 1014,1 hPa 0,0 l/m 8,6 km/h (2 Bft) S-SE 1,00 h 0,381 mm 709 W/m 9,3 C 15,2 C 13,9 km/h (3 Bft)
14/03/2008 13:00 15,5 C 66 % 1013,7 hPa 0,0 l/m 9,6 km/h (2 Bft) S 1,00 h 0,406 mm 646 W/m 9,2 C 15,5 C 14,4 km/h (3 Bft)
14/03/2008 14:00 15,4 C 66 % 1013,4 hPa 0,0 l/m 10,8 km/h (2 Bft) S-SE 1,00 h 0,381 mm 609 W/m 9,0 C 15,4 C 16,3 km/h (3 Bft)
14/03/2008 15:00 14,7 C 70 % 1013,3 hPa 0,0 l/m 8,3 km/h (2 Bft) S-SE 0,93 h 0,381 mm 441 W/m 9,2 C 14,7 C 13,2 km/h (3 Bft)
14/03/2008 16:00 13,9 C 74 % 1013,2 hPa 0,0 l/m 7,7 km/h (2 Bft) S-SE 0,65 h 0,254 mm 259 W/m 9,5 C 13,9 C 11,5 km/h (2 Bft)
14/03/2008 17:00 12,8 C 78 % 1013,3 hPa 0,0 l/m 6,2 km/h (2 Bft) S-SE 0,00 h 0,152 mm 30 W/m 9,1 C 12,8 C 8,6 km/h (2 Bft)
14/03/2008 18:00 12,1 C 82 % 1013,5 hPa 0,0 l/m 2,3 km/h (1 Bft) S-SE 0,00 h 0,025 mm 9 W/m 9,2 C 12,1 C 3,5 km/h (1 Bft)
14/03/2008 19:00 11,8 C 84 % 1013,8 hPa 0,0 l/m 0,5 km/h (0 Bft) S-SE 0,00 h 0,000 mm 0 W/m 9,3 C 11,8 C 1,1 km/h (1 Bft)
14/03/2008 20:00 11,7 C 85 % 1014,0 hPa 0,0 l/m 0,1 km/h (0 Bft) S-SE 0,00 h 0,025 mm 0 W/m 9,2 C 11,7 C 0,2 km/h (0 Bft)
14/03/2008 21:00 11,5 C 85 % 1014,1 hPa 0,0 l/m 0,0 km/h (0 Bft) N 0,00 h 0,025 mm 0 W/m 9,1 C 11,5 C 0,0 km/h (0 Bft)
14/03/2008 22:00 11,4 C 85 % 1014,4 hPa 0,0 l/m 0,8 km/h (0 Bft) S-SE 0,00 h 0,025 mm 0 W/m 9,0 C 11,4 C 1,1 km/h (1 Bft)
14/03/2008 23:00 11,2 C 85 % 1014,4 hPa 0,0 l/m 3,6 km/h (1 Bft) S-SE 0,00 h 0,025 mm 0 W/m 8,8 C 11,2 C 4,8 km/h (1 Bft)
15/03/2008 00:00 11,1 C 86 % 1014,3 hPa 0,0 l/m 1,5 km/h (1 Bft) S-SE 0,00 h 0,025 mm 0 W/m 8,9 C 11,1 C 2,4 km/h (1 Bft)
15/03/2008 01:00 11,1 C 87 % 1014,3 hPa 0,0 l/m 0,2 km/h (0 Bft) S-SE 0,00 h 0,025 mm 0 W/m 9,0 C 11,1 C 0,6 km/h (0 Bft)
15/03/2008 02:00 11,0 C 87 % 1014,2 hPa 0,0 l/m 0,2 km/h (0 Bft) S-SE 0,00 h 0,025 mm 0 W/m 9,0 C 11,0 C 0,3 km/h (0 Bft)
15/03/2008 03:00 10,8 C 87 % 1013,9 hPa 0,0 l/m 0,0 km/h (0 Bft) N 0,00 h 0,025 mm 0 W/m 8,8 C 10,8 C 0,0 km/h (0 Bft)
15/03/2008 04:00 10,5 C 87 % 1013,8 hPa 0,0 l/m 1,3 km/h (1 Bft) S-SE 0,00 h 0,025 mm 0 W/m 8,5 C 10,5 C 2,6 km/h (1 Bft)
15/03/2008 05:00 10,3 C 86 % 1014,0 hPa 0,0 l/m 5,0 km/h (1 Bft) N 0,00 h 0,025 mm 0 W/m 7,9 C 10,3 C 8,1 km/h (2 Bft)
15/03/2008 06:00 10,2 C 80 % 1014,0 hPa 0,0 l/m 5,6 km/h (1 Bft) NO 0,12 h 0,025 mm 12 W/m 6,9 C 10,2 C 8,3 km/h (2 Bft)
15/03/2008 07:00 10,1 C 79 % 1014,1 hPa 0,0 l/m 4,4 km/h (1 Bft) NO 0,18 h 0,025 mm 58 W/m 6,7 C 10,0 C 6,6 km/h (2 Bft)
15/03/2008 08:00 12,1 C 72 % 1014,2 hPa 0,0 l/m 1,2 km/h (1 Bft) NO 1,00 h 0,051 mm 278 W/m 7,2 C 12,1 C 2,5 km/h (1 Bft)
15/03/2008 09:00 13,6 C 69 % 1014,3 hPa 0,0 l/m 5,0 km/h (1 Bft) NE 0,60 h 0,152 mm 311 W/m 7,9 C 13,6 C 7,5 km/h (2 Bft)
15/03/2008 10:00 14,2 C 67 % 1014,4 hPa 0,0 l/m 4,5 km/h (1 Bft) E-NE 0,33 h 0,178 mm 349 W/m 8,1 C 14,2 C 7,0 km/h (2 Bft)
15/03/2008 11:00 15,0 C 67 % 1014,4 hPa 0,0 l/m 6,9 km/h (2 Bft) E 0,70 h 0,203 mm 495 W/m 9,0 C 15,0 C 11,3 km/h (2 Bft)
15/03/2008 12:00 14,3 C 73 % 1014,4 hPa 0,0 l/m 9,1 km/h (2 Bft) E 0,07 h 0,305 mm 303 W/m 9,6 C 14,3 C 14,0 km/h (3 Bft)
15/03/2008 13:00 14,1 C 74 % 1014,0 hPa 0,0 l/m 7,7 km/h (2 Bft) E 0,03 h 0,203 mm 319 W/m 9,6 C 14,1 C 11,5 km/h (2 Bft)
15/03/2008 14:00 13,6 C 76 % 1013,5 hPa 0,0 l/m 6,9 km/h (2 Bft) E 0,00 h 0,203 mm 181 W/m 9,5 C 13,6 C 10,2 km/h (2 Bft)
15/03/2008 15:00 13,0 C 79 % 1013,3 hPa 0,0 l/m 5,4 km/h (1 Bft) E 0,00 h 0,127 mm 91 W/m 9,5 C 13,0 C 7,9 km/h (2 Bft)
15/03/2008 16:00 12,5 C 84 % 1013,1 hPa 0,0 l/m 3,4 km/h (1 Bft) E 0,00 h 0,076 mm 68 W/m 9,7 C 12,5 C 5,2 km/h (1 Bft)
15/03/2008 17:00 12,3 C 87 % 1013,0 hPa 0,0 l/m 4,5 km/h (1 Bft) E 0,00 h 0,051 mm 30 W/m 10,1 C 12,3 C 6,4 km/h (2 Bft)
15/03/2008 18:00 11,7 C 88 % 1012,8 hPa 0,0 l/m 3,1 km/h (1 Bft) E-SE 0,00 h 0,025 mm 9 W/m 9,7 C 11,7 C 4,8 km/h (1 Bft)
15/03/2008 19:00 11,3 C 89 % 1012,5 hPa 0,0 l/m 0,5 km/h (0 Bft) E 0,00 h 0,000 mm 0 W/m 9,5 C 11,3 C 1,2 km/h (1 Bft)
15/03/2008 20:00 11,0 C 90 % 1012,5 hPa 0,0 l/m 0,7 km/h (0 Bft) SE 0,00 h 0,000 mm 0 W/m 9,4 C 11,0 C 1,0 km/h (0 Bft)
15/03/2008 21:00 10,8 C 91 % 1012,8 hPa 0,0 l/m 2,2 km/h (1 Bft) O-NO 0,00 h 0,000 mm 0 W/m 9,3 C 10,8 C 3,2 km/h (1 Bft)
15/03/2008 22:00 10,6 C 91 % 1012,8 hPa 0,0 l/m 2,2 km/h (1 Bft) O-NO 0,00 h 0,025 mm 0 W/m 9,2 C 10,6 C 3,1 km/h (1 Bft)
15/03/2008 23:00 10,3 C 92 % 1012,7 hPa 0,0 l/m 3,1 km/h (1 Bft) O 0,00 h 0,025 mm 0 W/m 9,1 C 10,3 C 4,4 km/h (1 Bft)
16/03/2008 00:00 9,9 C 93 % 1012,0 hPa 0,0 l/m 3,4 km/h (1 Bft) O 0,00 h 0,000 mm 0 W/m 8,8 C 9,8 C 4,5 km/h (1 Bft)
16/03/2008 01:00 9,5 C 93 % 1011,7 hPa 0,0 l/m 4,3 km/h (1 Bft) O 0,00 h 0,000 mm 0 W/m 8,5 C 9,3 C 5,5 km/h (1 Bft)
16/03/2008 02:00 9,4 C 94 % 1010,9 hPa 0,0 l/m 6,2 km/h (2 Bft) O 0,00 h 0,025 mm 0 W/m 8,5 C 8,8 C 8,3 km/h (2 Bft)
16/03/2008 03:00 9,0 C 94 % 1010,2 hPa 0,0 l/m 6,1 km/h (2 Bft) O-SO 0,00 h 0,025 mm 0 W/m 8,1 C 8,3 C 8,5 km/h (2 Bft)
16/03/2008 04:00 8,2 C 94 % 1009,6 hPa 0,0 l/m 6,0 km/h (2 Bft) O-SO 0,00 h 0,025 mm 0 W/m 7,3 C 7,4 C 8,7 km/h (2 Bft)
16/03/2008 05:00 7,6 C 94 % 1009,1 hPa 0,2 l/m 1,0 km/h (0 Bft) O-SO 0,00 h 0,000 mm 0 W/m 6,7 C 7,5 C 1,5 km/h (1 Bft)
16/03/2008 06:00 7,3 C 94 % 1008,7 hPa 0,0 l/m 2,1 km/h (1 Bft) O-SO 0,07 h 0,000 mm 10 W/m 6,4 C 7,2 C 3,7 km/h (1 Bft)
16/03/2008 07:00 7,6 C 95 % 1008,4 hPa 0,0 l/m 3,1 km/h (1 Bft) N-NO 0,18 h 0,000 mm 59 W/m 6,8 C 7,4 C 5,1 km/h (1 Bft)
16/03/2008 08:00 10,7 C 88 % 1008,1 hPa 0,0 l/m 5,9 km/h (2 Bft) SO 0,98 h 0,025 mm 256 W/m 8,7 C 10,6 C 9,1 km/h (2 Bft)
16/03/2008 09:00 13,0 C 70 % 1007,8 hPa 0,0 l/m 22,2 km/h (4 Bft) SO 0,83 h 0,127 mm 340 W/m 7,6 C 13,0 C 28,5 km/h (4 Bft)
16/03/2008 10:00 16,7 C 42 % 1007,4 hPa 0,0 l/m 22,4 km/h (4 Bft) O-SO 1,00 h 0,254 mm 578 W/m 3,1 C 16,7 C 31,9 km/h (5 Bft)
16/03/2008 11:00 18,1 C 29 % 1006,5 hPa 0,0 l/m 26,4 km/h (4 Bft) O-SO 1,00 h 0,483 mm 693 W/m -0,4 C 18,1 C 37,1 km/h (5 Bft)
16/03/2008 12:00 18,9 C 28 % 1006,1 hPa 0,0 l/m 24,7 km/h (4 Bft) O-SO 1,00 h 0,635 mm 722 W/m -0,2 C 18,9 C 34,6 km/h (5 Bft)
16/03/2008 13:00 19,7 C 27 % 1005,4 hPa 0,0 l/m 21,0 km/h (4 Bft) O 1,00 h 0,660 mm 696 W/m 0,3 C 19,7 C 29,8 km/h (5 Bft)
16/03/2008 14:00 19,4 C 28 % 1004,7 hPa 0,0 l/m 30,8 km/h (5 Bft) O 1,00 h 0,610 mm 619 W/m 0,1 C 19,4 C 42,7 km/h (6 Bft)
16/03/2008 15:00 19,1 C 29 % 1004,4 hPa 0,0 l/m 29,6 km/h (5 Bft) O 1,00 h 0,660 mm 491 W/m 0,5 C 19,1 C 40,6 km/h (6 Bft)
16/03/2008 16:00 18,4 C 30 % 1004,6 hPa 0,0 l/m 27,1 km/h (4 Bft) O 1,00 h 0,559 mm 326 W/m 0,5 C 18,4 C 37,4 km/h (5 Bft)
16/03/2008 17:00 17,5 C 32 % 1004,9 hPa 0,0 l/m 21,8 km/h (4 Bft) O-SO 1,00 h 0,432 mm 156 W/m 0,5 C 17,5 C 31,0 km/h (5 Bft)
16/03/2008 18:00 15,4 C 41 % 1005,4 hPa 0,0 l/m 15,6 km/h (3 Bft) SO 0,03 h 0,279 mm 14 W/m 2,1 C 15,4 C 21,6 km/h (4 Bft)
16/03/2008 19:00 14,1 C 47 % 1005,6 hPa 0,0 l/m 20,9 km/h (4 Bft) SO 0,00 h 0,127 mm 0 W/m 2,8 C 14,1 C 26,9 km/h (4 Bft)
16/03/2008 20:00 13,7 C 46 % 1005,2 hPa 0,0 l/m 21,5 km/h (4 Bft) SO 0,00 h 0,152 mm 0 W/m 2,2 C 13,7 C 28,4 km/h (4 Bft)
16/03/2008 21:00 13,3 C 48 % 1004,8 hPa 0,0 l/m 23,4 km/h (4 Bft) SO 0,00 h 0,152 mm 0 W/m 2,4 C 13,3 C 30,4 km/h (5 Bft)
16/03/2008 22:00 13,6 C 40 % 1004,9 hPa 0,0 l/m 13,2 km/h (3 Bft) O-NO 0,00 h 0,152 mm 0 W/m 0,4 C 13,6 C 19,4 km/h (3 Bft)
16/03/2008 23:00 13,4 C 41 % 1004,6 hPa 0,0 l/m 14,3 km/h (3 Bft) O 0,00 h 0,127 mm 0 W/m 0,3 C 13,4 C 19,9 km/h (4 Bft)
Min-Date _ 11/03/08 11/03/08 11/03/08 - 10/03/08 - - - - 11/03/08 11/03/08 10/03/08
_ Min-Heure 00:37 11:53 02:45 - 00:00 - - - - 11:37 02:32 00:00
Minimum _ 5,2 C 24 % 995,5 hPa - 0,0 km/h (0 Bft) - - - - -3,7 C 1,1 C 0,0 km/h (0 Bft)
Max-Date _ 12/03/08 10/03/08 14/03/08 10/03/08 11/03/08 - 11/03/08 16/03/08 12/03/08 13/03/08 12/03/08 11/03/08
_ Max-Heure 16:03 16:09 23:00 03:00 03:11 - 07:00 13:00 11:43 12:51 16:03 18:34
Maximum _ 22,0 C 100 % 1014,5 hPa 4,2 l/m 46,7 km/h
SO (6 Bft)
- 0,02 h 0,660 mm 881 W/m 12,5 C 22,0 C 61,2 km/h
SO (7 Bft)
Moyenne _ 11,9 C 73 % 1008,1 hPa #27,4 l/m 8,6 km/h (2 Bft) O #50:14 h #22,482 mm 291 W/m 6,4 C 11,6 C 12,4 km/h (3 Bft)
Roquefort les pins